Terminal Aerodrome Forecast
Issued by NWS

Home | Current Version | Previous Version | Graphics & Text | Print | Product List | Glossary On
Versions: 1 2 3 4 5 6 7 8 9 10 11 12 13 14 15 16 17 18 19 20 21 22 23 24 25 26 27 28 29 30 31 32 33 34 35 36 37 38 39 40 41 42 43 44
000
FTUS43 KGRB 250901 AAA
TAFRHI
TAF AMD
KRHI 250901Z 2509/2606 33010G16KT 5SM -SN SCT015 OVC025
      TEMPO 2509/2512 2SM -SN SCT008 BKN015
     FM251200 32011G18KT P6SM -SN SCT015 OVC025
     FM252200 26006KT P6SM SCT035=

USA.gov is the U.S. government's official web portal to all federal, state and local government web resources and services.